Time;durP1;ratioP1;P1;durP2;ratioP2;P2;SDS_P1;SDS_P2;PMS_P1;PMS_P2;Temp;Humidity;BMP_temperature;BMP_pressure;BME280_temperature;BME280_humidity;BME280_pressure;Samples;Min_cycle;Max_cycle;Signal;HPM_P1;HPM_P2
2022/01/06 00:00:11;;;;;;;4.77;2.70;;;4.80;65.20;;;;;;5029399;28;20022;-82
2022/01/06 00:02:37;;;;;;;4.50;2.60;;;4.70;65.30;;;;;;5048596;28;20026;-82
2022/01/06 00:05:03;;;;;;;5.57;2.67;;;4.70;65.30;;;;;;5032478;28;20040;-82
2022/01/06 00:07:29;;;;;;;4.93;3.20;;;4.80;65.50;;;;;;5025795;28;20040;-82
2022/01/06 00:09:55;;;;;;;4.87;2.70;;;4.80;65.50;;;;;;5030910;28;20025;-82
2022/01/06 00:12:27;;;;;;;4.53;2.60;;;4.80;65.40;;;;;;5029812;28;20032;-82
2022/01/06 00:15:01;;;;;;;4.97;3.00;;;4.80;65.40;;;;;;5031357;28;20105;-82
2022/01/06 00:23:22;;;;;;;4.67;3.00;;;4.70;65.80;;;;;;5034926;28;20060;-82
2022/01/06 00:25:48;;;;;;;5.10;3.10;;;4.70;65.70;;;;;;5032471;28;20025;-82
2022/01/06 00:28:14;;;;;;;5.23;2.97;;;4.70;65.80;;;;;;5033174;28;20030;-82
2022/01/06 00:30:40;;;;;;;6.90;3.30;;;4.80;65.70;;;;;;5048838;28;20033;-82
2022/01/06 00:33:07;;;;;;;7.50;3.30;;;4.80;65.60;;;;;;5032092;28;20124;-82
2022/01/06 00:35:33;;;;;;;6.13;3.37;;;4.80;65.50;;;;;;5048622;28;20032;-82
2022/01/06 00:37:58;;;;;;;7.50;2.93;;;4.80;65.50;;;;;;5029307;28;20025;-82
2022/01/06 00:40:24;;;;;;;5.33;3.27;;;4.80;65.30;;;;;;5031803;28;20029;-82
2022/01/06 00:42:50;;;;;;;6.43;3.40;;;4.80;65.30;;;;;;5033645;28;20037;-82
2022/01/06 00:45:16;;;;;;;5.30;3.30;;;4.90;65.40;;;;;;5032738;28;20029;-82
2022/01/06 00:47:43;;;;;;;5.37;3.70;;;4.80;65.40;;;;;;5033654;28;20021;-82
2022/01/06 00:50:09;;;;;;;5.53;3.50;;;4.80;65.50;;;;;;5032099;28;20060;-82
2022/01/06 00:52:35;;;;;;;7.13;3.50;;;4.80;65.60;;;;;;5048425;28;20049;-82
2022/01/06 00:55:00;;;;;;;6.97;4.03;;;4.80;65.60;;;;;;5028535;28;20365;-82
2022/01/06 00:57:26;;;;;;;9.03;3.80;;;4.80;65.80;;;;;;5048468;28;20029;-81
2022/01/06 00:59:52;;;;;;;6.93;3.53;;;4.80;65.90;;;;;;5031785;28;20025;-81
2022/01/06 01:02:17;;;;;;;5.37;3.53;;;4.70;65.90;;;;;;5039722;28;20042;-81
2022/01/06 01:04:43;;;;;;;6.80;3.83;;;4.70;66.10;;;;;;5044787;28;20080;-82
2022/01/06 01:07:09;;;;;;;7.97;3.70;;;4.70;66.20;;;;;;5031941;28;20021;-82
2022/01/06 01:09:34;;;;;;;4.83;2.03;;;4.70;66.20;;;;;;5031884;28;20021;-82
2022/01/06 01:12:03;;;;;;;4.27;1.83;;;4.70;66.10;;;;;;5031772;28;20056;-82
2022/01/06 01:14:32;;;;;;;7.20;2.00;;;4.70;65.70;;;;;;5031360;28;20037;-82
2022/01/06 01:17:01;;;;;;;4.27;2.00;;;4.70;65.40;;;;;;5031188;28;20045;-81
2022/01/06 01:19:29;;;;;;;5.97;2.50;;;4.60;65.50;;;;;;5026474;28;20033;-81
2022/01/06 01:21:55;;;;;;;6.93;4.10;;;4.60;65.60;;;;;;5031111;28;20025;-81
2022/01/06 01:24:22;;;;;;;6.43;3.30;;;4.60;65.70;;;;;;5048728;28;20033;-81
2022/01/06 01:26:48;;;;;;;5.50;3.23;;;4.60;65.90;;;;;;5032255;28;20421;-83
2022/01/06 01:29:18;;;;;;;6.40;3.50;;;4.60;66.00;;;;;;5029651;28;20036;-83
2022/01/06 01:31:49;;;;;;;5.53;2.53;;;4.60;66.20;;;;;;5031297;28;20383;-81
2022/01/06 01:34:21;;;;;;;6.00;1.80;;;4.60;66.10;;;;;;5031007;28;20031;-81
2022/01/06 01:36:48;;;;;;;5.20;2.30;;;4.60;65.90;;;;;;5047785;28;20032;-81
2022/01/06 01:39:14;;;;;;;5.87;2.13;;;4.60;65.80;;;;;;5030812;28;20067;-81
2022/01/06 01:41:39;;;;;;;4.67;1.70;;;4.60;65.80;;;;;;5032230;28;20105;-81
2022/01/06 01:44:12;;;;;;;3.40;1.60;;;4.50;65.70;;;;;;5047770;28;22295;-81
2022/01/06 01:46:43;;;;;;;;;;;4.50;65.60;;;;;;5031144;28;20033;-81
2022/01/06 01:51:45;;;;;;;3.63;1.63;;;4.50;65.30;;;;;;5032658;28;20033;-82
2022/01/06 01:54:11;;;;;;;7.23;2.30;;;4.50;65.90;;;;;;5047080;28;20017;-82
2022/01/06 01:56:38;;;;;;;8.90;2.83;;;4.60;65.50;;;;;;5032118;28;20026;-82
2022/01/06 01:59:04;;;;;;;6.43;2.80;;;4.60;65.60;;;;;;5030890;28;20064;-81
2022/01/06 02:01:29;;;;;;;6.53;2.43;;;4.60;65.60;;;;;;5037765;28;20821;-82
2022/01/06 02:03:55;;;;;;;3.90;2.53;;;4.60;65.70;;;;;;5067902;28;20025;-82
2022/01/06 02:06:21;;;;;;;5.27;2.60;;;4.60;66.60;;;;;;5052253;28;20388;-82
2022/01/06 02:08:47;;;;;;;7.53;2.80;;;4.60;66.10;;;;;;5027827;28;20140;-82
2022/01/06 02:11:13;;;;;;;5.27;3.17;;;4.60;66.10;;;;;;5027960;28;20026;-82
2022/01/06 02:13:49;;;;;;;6.47;3.43;;;4.60;66.20;;;;;;5038064;28;20112;-82
2022/01/06 02:16:25;;;;;;;6.93;3.97;;;4.60;66.50;;;;;;5031106;28;20137;-82
2022/01/06 02:18:53;;;;;;;7.47;4.00;;;4.60;66.60;;;;;;5047130;28;20053;-82
2022/01/06 02:21:19;;;;;;;7.17;3.57;;;4.60;66.60;;;;;;5031850;28;20421;-82
2022/01/06 02:23:45;;;;;;;11.77;4.67;;;4.60;66.70;;;;;;5030928;28;20476;-82
2022/01/06 02:26:12;;;;;;;6.53;3.10;;;4.60;66.80;;;;;;5047115;28;20025;-82
2022/01/06 02:28:40;;;;;;;6.37;2.80;;;4.60;66.70;;;;;;5030536;28;20513;-82
2022/01/06 02:31:06;;;;;;;5.10;2.80;;;4.60;66.60;;;;;;5030899;28;20025;-81
2022/01/06 02:33:32;;;;;;;5.70;3.20;;;4.70;66.60;;;;;;5047156;28;20500;-82
2022/01/06 02:35:58;;;;;;;4.20;2.57;;;4.70;66.50;;;;;;5034193;28;20112;-82
2022/01/06 02:38:24;;;;;;;7.97;4.23;;;4.70;66.40;;;;;;5034381;28;20653;-82
2022/01/06 02:40:50;;;;;;;5.70;3.10;;;4.70;66.30;;;;;;5051263;28;20025;-82
2022/01/06 02:43:18;;;;;;;4.60;2.70;;;4.70;66.40;;;;;;5031131;28;20053;-82
2022/01/06 02:45:45;;;;;;;7.03;3.20;;;4.70;66.50;;;;;;5036175;28;20112;-82
2022/01/06 02:48:12;;;;;;;6.37;2.70;;;4.70;66.40;;;;;;5034079;28;20079;-82
2022/01/06 02:50:41;;;;;;;5.70;2.90;;;4.70;66.30;;;;;;5019428;28;20480;-82
2022/01/06 02:53:08;;;;;;;5.73;3.47;;;4.70;66.30;;;;;;5034077;28;20014;-82
2022/01/06 02:55:37;;;;;;;5.17;3.27;;;4.70;66.40;;;;;;5051189;28;20051;-82
2022/01/06 02:58:03;;;;;;;6.40;3.43;;;4.70;66.60;;;;;;5050610;28;20026;-82
2022/01/06 03:00:30;;;;;;;7.37;3.37;;;4.70;66.50;;;;;;5050778;28;20357;-81
2022/01/06 03:02:55;;;;;;;5.80;3.13;;;4.70;66.60;;;;;;5031821;28;20025;-82
2022/01/06 03:05:21;;;;;;;5.00;3.50;;;4.70;66.60;;;;;;5033918;28;20440;-82
2022/01/06 03:07:47;;;;;;;5.63;3.23;;;4.70;66.60;;;;;;5034071;28;20022;-82
2022/01/06 03:10:16;;;;;;;6.67;4.00;;;4.70;66.70;;;;;;5035122;28;20026;-82
2022/01/06 03:12:43;;;;;;;4.77;3.27;;;4.70;66.70;;;;;;5034951;28;20017;-81
2022/01/06 03:15:15;;;;;;;5.33;3.47;;;4.70;66.80;;;;;;5033130;28;20037;-81
2022/01/06 03:17:43;;;;;;;6.53;4.07;;;4.70;66.90;;;;;;5034049;28;20109;-82
2022/01/06 03:20:12;;;;;;;6.07;3.80;;;4.70;67.00;;;;;;5035147;28;20030;-82
2022/01/06 03:22:38;;;;;;;6.30;3.60;;;4.70;67.20;;;;;;5033683;28;20025;-82
2022/01/06 03:25:05;;;;;;;7.20;3.67;;;4.70;67.20;;;;;;5031419;28;20785;-82
2022/01/06 03:27:31;;;;;;;6.30;3.67;;;4.70;67.00;;;;;;5033510;28;20388;-82
2022/01/06 03:29:57;;;;;;;7.53;3.53;;;4.70;67.00;;;;;;5032574;28;20025;-82
2022/01/06 03:32:23;;;;;;;6.60;3.90;;;4.60;67.10;;;;;;5026631;28;20021;-82
2022/01/06 03:34:49;;;;;;;6.23;3.30;;;4.60;67.20;;;;;;5034284;28;20029;-82
2022/01/06 03:37:15;;;;;;;7.53;3.70;;;4.60;67.20;;;;;;5045391;28;20115;-81
2022/01/06 03:39:42;;;;;;;7.87;4.17;;;4.60;67.20;;;;;;5046439;28;20037;-82
2022/01/06 03:42:11;;;;;;;4.80;3.60;;;4.60;67.30;;;;;;5045160;28;20048;-82
2022/01/06 03:44:38;;;;;;;8.33;3.50;;;4.60;67.30;;;;;;5033009;28;20025;-82
2022/01/06 03:47:04;;;;;;;6.10;3.37;;;4.60;67.10;;;;;;5051563;28;20108;-82
2022/01/06 03:49:30;;;;;;;8.43;3.73;;;4.60;67.20;;;;;;5052264;28;20075;-82
2022/01/06 03:51:56;;;;;;;6.00;3.60;;;4.60;67.50;;;;;;5032669;28;20022;-82
2022/01/06 03:54:22;;;;;;;4.80;3.20;;;4.60;67.50;;;;;;5032919;28;20026;-82
2022/01/06 03:56:49;;;;;;;5.77;3.03;;;4.60;67.70;;;;;;5034495;28;20105;-82
2022/01/06 03:59:16;;;;;;;31.60;15.43;;;4.60;67.90;;;;;;5032425;28;20030;-82
2022/01/06 04:01:42;;;;;;;9.57;4.67;;;4.60;68.00;;;;;;5032817;28;20021;-82
2022/01/06 04:04:09;;;;;;;5.37;3.80;;;4.60;67.80;;;;;;5034271;28;20596;-81
2022/01/06 04:06:34;;;;;;;4.13;3.07;;;4.60;68.00;;;;;;5049100;28;20062;-81
2022/01/06 04:09:00;;;;;;;6.07;3.27;;;4.70;68.10;;;;;;5049783;28;20022;-82
2022/01/06 04:11:26;;;;;;;7.33;3.57;;;4.70;68.00;;;;;;5048743;28;20034;-82
2022/01/06 04:13:52;;;;;;;5.03;3.53;;;4.70;67.90;;;;;;5033219;28;20026;-82
2022/01/06 04:16:18;;;;;;;6.37;4.37;;;4.70;67.80;;;;;;5032560;28;20057;-81
2022/01/06 04:18:44;;;;;;;7.57;4.20;;;4.70;67.80;;;;;;5032346;28;20706;-81
2022/01/06 04:21:10;;;;;;;6.67;3.20;;;4.70;67.70;;;;;;5032377;28;20021;-82
2022/01/06 04:23:36;;;;;;;13.87;4.47;;;4.70;67.70;;;;;;5032260;28;20060;-81
2022/01/06 04:26:02;;;;;;;7.80;4.03;;;4.60;67.80;;;;;;5033521;28;20372;-82
2022/01/06 04:28:28;;;;;;;8.07;4.17;;;4.60;67.90;;;;;;5054206;28;20036;-82
2022/01/06 04:30:54;;;;;;;6.27;3.87;;;4.60;67.80;;;;;;5032349;28;20140;-82
2022/01/06 04:33:20;;;;;;;6.77;4.33;;;4.60;68.00;;;;;;5049408;28;20022;-82
2022/01/06 04:35:46;;;;;;;6.60;3.83;;;4.60;67.90;;;;;;5025595;28;20029;-82
2022/01/06 04:38:11;;;;;;;6.33;3.60;;;4.70;67.90;;;;;;5032116;28;20173;-81
2022/01/06 04:40:37;;;;;;;5.53;3.70;;;4.60;67.80;;;;;;5032186;28;20069;-82
2022/01/06 04:43:04;;;;;;;8.57;4.10;;;4.60;67.90;;;;;;5031989;28;20052;-81
2022/01/06 04:45:30;;;;;;;7.87;3.80;;;4.60;67.80;;;;;;5048802;28;20026;-82
2022/01/06 04:47:56;;;;;;;8.60;4.60;;;4.60;67.80;;;;;;5048040;28;20025;-81
2022/01/06 04:50:22;;;;;;;8.47;3.83;;;4.60;67.70;;;;;;5049053;28;20026;-81
2022/01/06 04:52:47;;;;;;;5.83;4.10;;;4.70;67.50;;;;;;5031754;28;20026;-82
2022/01/06 04:55:13;;;;;;;8.63;4.23;;;4.60;67.50;;;;;;5031918;28;20446;-79
2022/01/06 04:57:39;;;;;;;11.37;4.50;;;4.70;67.50;;;;;;5021710;28;20037;-81
2022/01/06 05:00:06;;;;;;;7.07;3.80;;;4.60;67.50;;;;;;5027902;28;20032;-82
2022/01/06 05:02:32;;;;;;;7.67;4.10;;;4.60;67.30;;;;;;5048011;28;20044;-82
2022/01/06 05:04:57;;;;;;;6.70;4.07;;;4.60;67.30;;;;;;5031612;28;20108;-82
2022/01/06 05:07:23;;;;;;;6.10;3.67;;;4.60;67.50;;;;;;5048553;28;20109;-81
2022/01/06 05:09:49;;;;;;;7.57;3.20;;;4.60;67.40;;;;;;5049549;28;20086;-82
2022/01/06 05:12:15;;;;;;;9.10;3.90;;;4.60;67.40;;;;;;5048516;28;20036;-82
2022/01/06 05:14:42;;;;;;;8.60;3.67;;;4.60;67.40;;;;;;5040377;28;20109;-82
2022/01/06 05:17:08;;;;;;;3.90;2.80;;;4.60;67.20;;;;;;5047189;28;20120;-81
2022/01/06 05:19:33;;;;;;;5.33;2.70;;;4.60;67.50;;;;;;5031274;28;20030;-82
2022/01/06 05:22:00;;;;;;;3.80;2.57;;;4.60;67.90;;;;;;5025269;28;20021;-81
2022/01/06 05:24:25;;;;;;;3.87;2.20;;;4.80;67.90;;;;;;5032460;28;20033;-81
2022/01/06 05:26:54;;;;;;;3.53;2.50;;;4.80;67.60;;;;;;5037258;28;20035;-81
2022/01/06 05:29:20;;;;;;;7.50;2.60;;;4.80;67.30;;;;;;5048066;28;20029;-81
2022/01/06 05:31:46;;;;;;;5.50;2.97;;;4.80;67.10;;;;;;5032690;28;20018;-81
2022/01/06 05:34:11;;;;;;;6.00;2.23;;;4.80;67.10;;;;;;5031282;28;20017;-82
2022/01/06 05:36:38;;;;;;;5.93;2.80;;;4.80;67.10;;;;;;5047704;28;20100;-82
2022/01/06 05:39:04;;;;;;;8.90;4.03;;;4.70;67.00;;;;;;5030882;28;20029;-81
2022/01/06 05:41:30;;;;;;;7.10;4.10;;;4.70;67.00;;;;;;5030985;28;20114;-81
2022/01/06 05:43:56;;;;;;;7.23;3.60;;;4.70;67.00;;;;;;5031451;28;20072;-81
2022/01/06 05:46:21;;;;;;;6.33;2.90;;;4.70;67.10;;;;;;5031194;28;20029;-81
2022/01/06 05:48:48;;;;;;;5.33;3.00;;;4.70;67.00;;;;;;5031033;28;20014;-81
2022/01/06 05:51:14;;;;;;;5.40;2.83;;;4.70;66.80;;;;;;5046504;28;20033;-82
2022/01/06 05:53:40;;;;;;;4.93;2.97;;;4.70;66.80;;;;;;5031051;28;20052;-81
2022/01/06 05:56:06;;;;;;;5.63;3.17;;;4.70;66.70;;;;;;5047492;28;20025;-81
2022/01/06 05:58:32;;;;;;;6.23;2.67;;;4.70;66.60;;;;;;5047594;28;20029;-81
2022/01/06 06:00:58;;;;;;;4.37;2.67;;;4.70;66.40;;;;;;5030692;28;20029;-81
2022/01/06 06:03:27;;;;;;;4.70;3.07;;;4.60;66.30;;;;;;5031983;28;20055;-82
2022/01/06 06:05:54;;;;;;;4.57;2.70;;;4.60;66.50;;;;;;5031265;28;20109;-81
2022/01/06 06:08:20;;;;;;;5.87;2.70;;;4.60;66.40;;;;;;5030729;28;20017;-82
2022/01/06 06:10:46;;;;;;;6.27;3.03;;;4.70;66.60;;;;;;5050921;28;20053;-82
2022/01/06 06:13:11;;;;;;;7.47;3.17;;;4.70;66.50;;;;;;5036109;28;20079;-82
2022/01/06 06:15:37;;;;;;;5.97;2.70;;;4.70;66.80;;;;;;5029424;28;20515;-81
2022/01/06 06:18:04;;;;;;;5.53;3.07;;;4.70;66.70;;;;;;5044322;28;20384;-81
2022/01/06 06:20:30;;;;;;;8.30;3.47;;;4.70;66.60;;;;;;5029711;28;20025;-82
2022/01/06 06:22:56;;;;;;;7.20;3.00;;;4.70;66.70;;;;;;5032316;28;20491;-82
2022/01/06 06:25:22;;;;;;;5.73;3.00;;;4.70;66.60;;;;;;5034802;28;20045;-81
2022/01/06 06:27:47;;;;;;;9.03;3.40;;;4.60;66.70;;;;;;5051059;28;20022;-81
2022/01/06 06:30:13;;;;;;;5.63;2.87;;;4.70;66.70;;;;;;5034040;28;20025;-82
2022/01/06 06:32:39;;;;;;;8.33;3.60;;;4.60;66.50;;;;;;5051179;28;20476;-82
2022/01/06 06:35:06;;;;;;;5.97;3.20;;;4.60;66.80;;;;;;5015128;28;20180;-82
2022/01/06 06:37:32;;;;;;;4.90;3.00;;;4.60;66.80;;;;;;5050806;28;20022;-82
2022/01/06 06:39:59;;;;;;;9.70;5.53;;;4.50;66.80;;;;;;5033573;28;20090;-81
2022/01/06 06:42:26;;;;;;;5.37;3.13;;;4.50;67.10;;;;;;5049868;28;20036;-81
2022/01/06 06:44:52;;;;;;;6.53;3.37;;;4.60;66.90;;;;;;5048286;28;20030;-81
2022/01/06 06:47:19;;;;;;;7.67;4.03;;;4.50;67.00;;;;;;5033858;28;20480;-81
2022/01/06 06:49:45;;;;;;;7.33;4.40;;;4.60;67.00;;;;;;5036105;28;20033;-81
2022/01/06 06:52:11;;;;;;;10.73;5.63;;;4.50;66.90;;;;;;5032180;28;20036;-81
2022/01/06 06:54:38;;;;;;;21.73;10.70;;;4.50;67.00;;;;;;5044971;28;20026;-81
2022/01/06 06:57:04;;;;;;;16.60;9.13;;;4.50;66.90;;;;;;5014470;28;20539;-81
2022/01/06 06:59:30;;;;;;;16.50;9.37;;;4.50;67.20;;;;;;5027009;28;20087;-82
2022/01/06 07:01:57;;;;;;;14.93;9.13;;;4.50;67.30;;;;;;5033600;28;20025;-82
2022/01/06 07:04:23;;;;;;;13.40;8.67;;;4.50;67.30;;;;;;5035380;28;20055;-82
2022/01/06 07:06:50;;;;;;;10.20;6.03;;;4.60;67.30;;;;;;5050212;28;20029;-82
2022/01/06 07:09:16;;;;;;;9.00;5.17;;;4.50;67.20;;;;;;5046210;28;20072;-81
2022/01/06 07:11:43;;;;;;;8.20;4.10;;;4.50;67.40;;;;;;5050342;28;20021;-81
2022/01/06 07:14:12;;;;;;;6.93;3.90;;;4.50;67.40;;;;;;5034361;28;20245;-82
2022/01/06 07:16:37;;;;;;;7.40;4.03;;;4.50;67.30;;;;;;5050009;28;20050;-82
2022/01/06 07:19:03;;;;;;;7.13;3.67;;;4.50;67.10;;;;;;5032489;28;20037;-82
2022/01/06 07:21:29;;;;;;;8.23;4.43;;;4.50;67.10;;;;;;5032859;28;20419;-81
2022/01/06 07:23:55;;;;;;;8.47;4.77;;;4.50;67.30;;;;;;5043100;28;20029;-81
2022/01/06 07:26:22;;;;;;;8.17;4.77;;;4.50;67.40;;;;;;5030030;28;20431;-81
2022/01/06 07:28:48;;;;;;;6.90;4.60;;;4.50;67.20;;;;;;5033561;28;20017;-81
2022/01/06 07:31:14;;;;;;;7.73;5.77;;;4.50;67.10;;;;;;5045783;28;20033;-82
2022/01/06 07:33:40;;;;;;;8.23;5.07;;;4.50;67.30;;;;;;5025210;28;20030;-81
2022/01/06 07:36:07;;;;;;;8.17;5.00;;;4.50;67.30;;;;;;5049846;28;20461;-81
2022/01/06 07:38:33;;;;;;;8.50;4.10;;;4.50;67.50;;;;;;5034167;28;20083;-80
2022/01/06 07:41:00;;;;;;;8.50;5.33;;;4.50;67.30;;;;;;5046300;28;20021;-81
2022/01/06 07:43:26;;;;;;;7.20;4.80;;;4.40;67.40;;;;;;5035254;28;20040;-81
2022/01/06 07:45:52;;;;;;;7.43;5.23;;;4.30;67.30;;;;;;5033246;28;20038;-81
2022/01/06 07:48:25;;;;;;;8.93;4.40;;;4.30;67.50;;;;;;5050156;28;20391;-81
2022/01/06 07:50:53;;;;;;;10.27;6.57;;;4.20;67.60;;;;;;5049460;28;20395;-81
2022/01/06 07:53:19;;;;;;;10.57;6.47;;;4.30;67.40;;;;;;5033776;28;20357;-81
2022/01/06 07:55:45;;;;;;;6.23;4.30;;;4.20;67.40;;;;;;5049856;28;20074;-81
2022/01/06 07:58:11;;;;;;;8.23;4.73;;;4.20;67.60;;;;;;5049516;28;20029;-81
2022/01/06 08:00:37;;;;;;;7.97;4.80;;;4.20;67.70;;;;;;5033644;28;20029;-81
2022/01/06 08:03:03;;;;;;;12.07;5.13;;;4.30;67.90;;;;;;5048934;28;20029;-81
2022/01/06 08:05:29;;;;;;;22.23;10.40;;;4.40;67.70;;;;;;5048853;28;20053;-81
2022/01/06 08:07:56;;;;;;;12.13;6.17;;;4.30;67.80;;;;;;5033162;28;20029;-81
2022/01/06 08:10:23;;;;;;;9.33;5.70;;;4.30;67.70;;;;;;5034358;28;20021;-81
2022/01/06 08:12:50;;;;;;;12.23;7.03;;;4.30;68.00;;;;;;5049554;28;20022;-81
2022/01/06 08:15:17;;;;;;;13.40;7.27;;;4.30;68.00;;;;;;5046305;28;20103;-82
2022/01/06 08:17:43;;;;;;;17.80;9.13;;;4.30;68.10;;;;;;5031355;28;20024;-81
2022/01/06 08:20:10;;;;;;;13.63;8.20;;;4.30;68.00;;;;;;5026898;28;20040;-81
2022/01/06 08:22:37;;;;;;;12.00;6.20;;;4.40;67.90;;;;;;5032208;28;20472;-81
2022/01/06 08:25:05;;;;;;;10.00;6.03;;;4.40;68.00;;;;;;5049239;28;20026;-81
2022/01/06 08:27:31;;;;;;;10.63;5.73;;;4.40;67.80;;;;;;5029171;28;20124;-81
2022/01/06 08:29:58;;;;;;;7.57;5.10;;;4.40;67.80;;;;;;5033374;28;20028;-81
2022/01/06 08:32:24;;;;;;;11.40;5.97;;;4.30;67.70;;;;;;5031969;28;20028;-81
2022/01/06 08:34:50;;;;;;;10.53;5.80;;;4.40;68.00;;;;;;5012685;28;20117;-81
2022/01/06 08:37:17;;;;;;;14.60;6.27;;;4.40;67.80;;;;;;5029905;28;20507;-81
2022/01/06 08:39:43;;;;;;;13.83;7.20;;;4.40;67.90;;;;;;5032401;28;20025;-81
2022/01/06 08:42:11;;;;;;;10.10;6.37;;;4.40;67.90;;;;;;5032457;28;20040;-81
2022/01/06 08:44:39;;;;;;;10.13;5.50;;;4.40;67.90;;;;;;5033180;28;20033;-81
2022/01/06 08:47:06;;;;;;;11.43;6.17;;;4.40;68.00;;;;;;5033037;28;20029;-81
2022/01/06 08:49:33;;;;;;;9.07;4.57;;;4.40;67.70;;;;;;5031716;28;20022;-82
2022/01/06 08:51:59;;;;;;;7.77;5.50;;;4.30;67.80;;;;;;5031253;28;20064;-81
2022/01/06 08:54:25;;;;;;;7.97;5.07;;;4.30;68.00;;;;;;5031193;28;20056;-81
2022/01/06 08:56:51;;;;;;;7.03;4.37;;;4.40;68.20;;;;;;5046178;28;20039;-81
2022/01/06 08:59:16;;;;;;;6.47;4.53;;;4.50;68.10;;;;;;5032999;28;20104;-81
2022/01/06 09:01:42;;;;;;;8.00;4.87;;;4.50;68.00;;;;;;5044538;28;20032;-81
2022/01/06 09:04:08;;;;;;;10.50;4.87;;;4.60;67.90;;;;;;5027527;28;20022;-81
2022/01/06 09:06:34;;;;;;;7.80;4.60;;;4.60;67.80;;;;;;5048155;28;20163;-82
2022/01/06 09:09:02;;;;;;;7.30;4.67;;;4.60;67.80;;;;;;5047712;28;20030;-81
2022/01/06 09:11:28;;;;;;;7.33;4.60;;;4.60;67.80;;;;;;5031459;28;20021;-82
2022/01/06 09:13:54;;;;;;;6.57;4.53;;;4.50;67.70;;;;;;5031876;28;20017;-81
2022/01/06 09:16:20;;;;;;;7.70;5.30;;;4.60;67.70;;;;;;5032018;28;20120;-81
2022/01/06 09:18:46;;;;;;;13.03;5.70;;;4.70;67.70;;;;;;5043034;28;20053;-81
2022/01/06 09:21:12;;;;;;;8.73;5.60;;;4.70;67.90;;;;;;5028300;28;20421;-82
2022/01/06 09:23:38;;;;;;;11.57;6.60;;;4.70;67.70;;;;;;5031376;28;20025;-82
2022/01/06 09:26:04;;;;;;;10.17;5.47;;;4.90;67.80;;;;;;5030240;28;20411;-81
2022/01/06 09:28:30;;;;;;;9.77;5.33;;;4.90;67.40;;;;;;5047659;28;20029;-82
2022/01/06 09:30:57;;;;;;;9.20;5.60;;;4.90;67.30;;;;;;5047892;28;20481;-81
2022/01/06 09:33:24;;;;;;;10.53;5.87;;;4.90;67.30;;;;;;5031403;28;20025;-81
2022/01/06 09:35:54;;;;;;;10.30;5.90;;;5.00;67.30;;;;;;5047710;28;20037;-81
2022/01/06 09:38:21;;;;;;;10.10;5.50;;;5.00;67.40;;;;;;5031430;28;20087;-81
2022/01/06 09:40:46;;;;;;;10.43;6.43;;;5.00;67.30;;;;;;5032650;28;20428;-81
2022/01/06 09:43:13;;;;;;;12.20;5.57;;;5.10;67.00;;;;;;5038486;28;20033;-80
2022/01/06 09:45:41;;;;;;;8.13;3.80;;;5.20;66.90;;;;;;5031160;28;20045;-81
2022/01/06 09:48:08;;;;;;;7.80;3.17;;;5.20;66.80;;;;;;5047695;28;20413;-81
2022/01/06 09:50:36;;;;;;;9.17;3.50;;;5.20;66.60;;;;;;5047178;28;20527;-81
2022/01/06 09:53:02;;;;;;;5.70;3.60;;;5.10;67.10;;;;;;5030922;28;20052;-83
2022/01/06 09:55:28;;;;;;;7.30;3.90;;;5.20;66.50;;;;;;5047346;28;20032;-82
2022/01/06 09:58:00;;;;;;;4.57;2.80;;;5.20;66.30;;;;;;5031147;28;20392;-82
2022/01/06 10:00:30;;;;;;;6.13;3.60;;;5.30;66.40;;;;;;5047072;28;20052;-83
2022/01/06 10:03:01;;;;;;;5.43;3.70;;;5.40;66.20;;;;;;5047903;28;20029;-82
2022/01/06 10:05:41;;;;;;;5.47;3.40;;;5.50;65.90;;;;;;5020921;28;20124;-82
2022/01/06 10:08:09;;;;;;;10.83;4.17;;;5.50;65.60;;;;;;5031206;28;20018;-82
2022/01/06 10:10:35;;;;;;;9.90;4.60;;;5.60;65.70;;;;;;5030229;28;20471;-82
2022/01/06 10:13:09;;;;;;;8.17;2.90;;;5.60;65.30;;;;;;5032009;28;20089;-82
2022/01/06 10:15:38;;;;;;;7.53;3.40;;;5.50;65.00;;;;;;5027861;28;20411;-83
2022/01/06 10:18:15;;;;;;;6.00;3.30;;;5.50;64.80;;;;;;5030998;28;20080;-82
2022/01/06 10:20:41;;;;;;;6.33;3.10;;;5.50;64.80;;;;;;5047580;28;20040;-81
2022/01/06 10:23:15;;;;;;;5.33;3.00;;;5.50;64.70;;;;;;5030867;28;20052;-82
2022/01/06 10:25:49;;;;;;;6.83;3.63;;;5.40;64.60;;;;;;5030429;28;20030;-82
2022/01/06 10:28:23;;;;;;;6.53;3.00;;;5.30;64.40;;;;;;5031220;28;20029;-82
2022/01/06 10:30:49;;;;;;;5.00;2.93;;;5.30;64.30;;;;;;5031863;28;20025;-80
2022/01/06 10:33:21;;;;;;;5.27;2.60;;;5.30;64.30;;;;;;5029554;28;20033;-82
2022/01/06 10:35:48;;;;;;;9.60;4.65;;;5.30;64.40;;;;;;5013115;28;20088;-82
2022/01/06 10:38:26;;;;;;;10.07;5.00;;;5.30;64.40;;;;;;5030409;28;20092;-82
2022/01/06 10:40:51;;;;;;;10.13;5.50;;;5.30;64.30;;;;;;5030314;28;20030;-82
2022/01/06 10:43:31;;;;;;;8.43;5.70;;;5.20;64.60;;;;;;5046556;28;20534;-82
2022/01/06 10:46:02;;;;;;;9.37;5.70;;;5.30;64.90;;;;;;5044395;28;20040;-82
2022/01/06 10:48:28;;;;;;;9.40;5.60;;;5.40;65.00;;;;;;5030467;28;20366;-82
2022/01/06 10:50:58;;;;;;;8.23;5.20;;;5.30;65.00;;;;;;5031514;28;20092;-82
2022/01/06 10:53:24;;;;;;;10.33;4.73;;;5.30;65.20;;;;;;5030124;28;20029;-81
2022/01/06 10:55:50;;;;;;;5.70;3.37;;;5.30;65.20;;;;;;5032113;28;20025;-82
2022/01/06 10:58:25;;;;;;;8.17;3.53;;;5.30;65.50;;;;;;5029232;28;20128;-82
2022/01/06 11:01:01;;;;;;;9.47;4.47;;;5.40;65.70;;;;;;5034845;28;20025;-82
2022/01/06 11:03:29;;;;;;;10.57;4.07;;;5.40;65.60;;;;;;5034419;28;20067;-83
2022/01/06 11:05:59;;;;;;;7.53;3.50;;;5.30;65.60;;;;;;5050118;28;20065;-82
2022/01/06 11:08:28;;;;;;;6.33;3.10;;;5.30;65.60;;;;;;5033840;28;20052;-83
2022/01/06 11:11:30;;;;;;;6.33;2.93;;;5.40;66.20;;;;;;5033463;28;20022;-82
2022/01/06 11:13:45;;;;;;;5.03;2.80;;;5.40;65.40;;;;;;5032779;28;20523;-83
2022/01/06 11:16:14;;;;;;;7.37;3.60;;;5.40;65.40;;;;;;5028338;28;20044;-83
2022/01/06 11:18:54;;;;;;;8.30;4.30;;;5.50;65.50;;;;;;5034416;28;20393;-83
2022/01/06 11:21:36;;;;;;;4.40;2.80;;;5.50;65.40;;;;;;5033870;28;20115;-82
2022/01/06 11:24:13;;;;;;;5.63;3.67;;;5.50;65.10;;;;;;5050790;28;20025;-83
2022/01/06 11:26:55;;;;;;;8.53;3.00;;;5.50;65.10;;;;;;5050500;28;20318;-82
2022/01/06 11:29:34;;;;;;;6.47;3.70;;;5.50;65.30;;;;;;5034907;28;20519;-82
2022/01/06 11:32:04;;;;;;;6.27;3.33;;;5.50;65.40;;;;;;5050180;28;20025;-82
2022/01/06 11:34:37;;;;;;;6.97;3.93;;;5.40;65.80;;;;;;5049843;28;20476;-82
2022/01/06 11:37:11;;;;;;;8.13;4.43;;;5.50;66.20;;;;;;5033561;28;20022;-82
2022/01/06 11:39:39;;;;;;;5.57;3.27;;;5.60;66.30;;;;;;5033524;28;20032;-82
2022/01/06 11:42:22;;;;;;;8.83;4.17;;;5.60;66.00;;;;;;5033435;28;20029;-82
2022/01/06 11:44:54;;;;;;;11.97;7.80;;;5.70;66.30;;;;;;5046685;28;20033;-82
2022/01/06 11:47:39;;;;;;;15.70;9.30;;;5.80;66.00;;;;;;5033200;28;20033;-83
2022/01/06 11:50:11;;;;;;;7.57;4.40;;;5.90;66.50;;;;;;5049903;28;20029;-82
2022/01/06 11:52:48;;;;;;;6.75;4.05;;;5.90;66.40;;;;;;5049909;28;20076;-82
2022/01/06 11:55:14;;;;;;;6.77;3.90;;;6.00;66.50;;;;;;5033303;28;20071;-83
2022/01/06 11:57:40;;;;;;;7.80;3.93;;;6.00;66.10;;;;;;5049972;28;20049;-82
2022/01/06 12:00:13;;;;;;;9.17;3.67;;;5.80;66.20;;;;;;5033056;28;20022;-83
2022/01/06 12:02:38;;;;;;;8.02;5.15;;;5.90;66.70;;;;;;5050043;28;20025;-82
2022/01/06 12:05:05;;;;;;;7.47;5.37;;;6.10;66.60;;;;;;5049857;28;20036;-82
2022/01/06 12:07:30;;;;;;;7.70;4.23;;;6.10;66.50;;;;;;5033406;28;20025;-82
2022/01/06 12:10:06;;;;;;;6.00;3.70;;;6.10;66.40;;;;;;5032741;28;20553;-83
2022/01/06 12:12:37;;;;;;;6.80;4.33;;;6.10;66.50;;;;;;5022867;28;20083;-83
2022/01/06 12:15:12;;;;;;;11.60;4.60;;;6.10;66.60;;;;;;5027889;28;20080;-83
2022/01/06 12:18:32;;;;;;;9.73;4.13;;;6.00;66.50;;;;;;5027114;28;20029;-83
2022/01/06 12:21:13;;;;;;;11.07;5.07;;;6.00;66.40;;;;;;5017330;28;20083;-83
2022/01/06 12:24:09;;;;;;;9.10;4.43;;;6.10;66.40;;;;;;5032376;28;20037;-82
2022/01/06 12:27:17;;;;;;;8.53;4.33;;;6.00;66.20;;;;;;5030772;28;20536;-83
2022/01/06 12:30:14;;;;;;;7.60;4.10;;;6.00;66.30;;;;;;5025227;28;20025;-83
2022/01/06 12:33:19;;;;;;;11.67;5.60;;;6.10;66.20;;;;;;5031734;28;20477;-83
2022/01/06 12:36:33;;;;;;;12.13;7.37;;;6.10;66.10;;;;;;5049214;28;20071;-83
2022/01/06 12:39:19;;;;;;;;;;;6.00;66.00;;;;;;5030739;28;20026;-82
2022/01/06 12:41:46;;;;;;;7.03;4.83;;;6.10;66.00;;;;;;5030654;28;19962;-83
2022/01/06 12:44:19;;;;;;;24.07;18.47;;;6.10;65.80;;;;;;5031823;28;20029;-83
2022/01/06 12:46:45;;;;;;;14.52;10.70;;;6.10;65.90;;;;;;5031863;28;20124;-83
2022/01/06 12:49:12;;;;;;;11.30;7.30;;;6.10;66.00;;;;;;5032274;28;20025;-83
2022/01/06 12:51:44;;;;;;;13.33;8.20;;;6.10;66.00;;;;;;5030193;28;20026;-82
2022/01/06 12:54:13;;;;;;;14.60;7.67;;;6.00;66.10;;;;;;5031479;28;20017;-82
2022/01/06 12:56:56;;;;;;;14.40;7.50;;;6.00;66.10;;;;;;5047933;28;20350;-84
2022/01/06 12:59:34;;;;;;;9.47;5.70;;;6.00;66.00;;;;;;5028286;28;20044;-82
2022/01/06 13:02:03;;;;;;;10.77;6.60;;;6.10;66.00;;;;;;5026037;28;20547;-81
2022/01/06 13:04:44;;;;;;;13.63;8.17;;;6.10;66.00;;;;;;5032414;28;20037;-83
2022/01/06 13:07:16;;;;;;;14.87;8.90;;;6.10;66.20;;;;;;5030266;28;20036;-81
2022/01/06 13:09:42;;;;;;;11.57;8.00;;;6.10;66.30;;;;;;5047855;28;20036;-82